createdAt,value
2023-04-02T00:03:08.532Z,10.10
2023-04-02T00:06:56.585Z,10.00
2023-04-02T00:10:46.892Z,10.00
2023-04-02T00:14:33.767Z,10.00
2023-04-02T00:18:18.314Z,10.00
2023-04-02T00:22:02.194Z,10.00
2023-04-02T00:25:46.204Z,9.90
2023-04-02T00:29:27.909Z,9.90
2023-04-02T00:33:19.888Z,10.00
2023-04-02T00:37:02.132Z,9.90
2023-04-02T00:40:44.112Z,9.90
2023-04-02T00:44:32.755Z,9.90
2023-04-02T00:48:27.616Z,9.90
2023-04-02T00:52:16.818Z,9.90
2023-04-02T00:55:59.054Z,9.80
2023-04-02T01:00:07.832Z,9.90
2023-04-02T01:03:53.843Z,9.80
2023-04-02T01:07:55.304Z,9.80
2023-04-02T01:11:55.551Z,9.80
2023-04-02T01:16:05.817Z,9.70
2023-04-02T01:20:16.854Z,9.70
2023-04-02T01:24:05.574Z,9.60
2023-04-02T01:28:09.630Z,9.60
2023-04-02T01:31:53.331Z,9.60
2023-04-02T01:35:44.547Z,9.60
2023-04-02T01:39:39.892Z,9.50
2023-04-02T01:43:29.084Z,9.50
2023-04-02T01:47:13.950Z,9.50
2023-04-02T01:50:58.180Z,9.50
2023-04-02T01:54:41.317Z,9.50
2023-04-02T01:58:26.253Z,9.50
2023-04-02T02:02:12.981Z,9.40
2023-04-02T02:05:55.628Z,9.50
2023-04-02T02:09:37.633Z,9.50
2023-04-02T02:13:20.818Z,9.50
2023-04-02T02:17:04.891Z,9.40
2023-04-02T02:20:47.390Z,9.50
2023-04-02T02:24:32.160Z,9.50
2023-04-02T02:28:31.288Z,9.40
2023-04-02T02:32:15.925Z,9.40
2023-04-02T02:36:13.781Z,9.40
2023-04-02T02:39:59.485Z,9.40
2023-04-02T02:43:59.215Z,9.40
2023-04-02T02:47:43.748Z,9.40
2023-04-02T02:51:37.977Z,9.40
2023-04-02T02:55:24.445Z,9.40
2023-04-02T02:59:09.111Z,9.40
2023-04-02T03:02:53.247Z,9.40
2023-04-02T03:06:36.636Z,9.40
2023-04-02T03:10:28.781Z,9.40
2023-04-02T03:14:38.376Z,9.40
2023-04-02T03:18:29.544Z,9.40
2023-04-02T03:22:27.663Z,9.40
2023-04-02T03:26:09.320Z,9.40
2023-04-02T03:30:04.573Z,9.40
2023-04-02T03:33:59.693Z,9.40
2023-04-02T03:37:48.380Z,9.40
2023-04-02T03:41:52.362Z,9.40
2023-04-02T03:45:41.340Z,9.40
2023-04-02T03:49:34.266Z,9.40
2023-04-02T03:53:16.151Z,9.40
2023-04-02T03:56:58.652Z,9.40
2023-04-02T04:00:58.682Z,9.50
2023-04-02T04:04:42.915Z,9.40
2023-04-02T04:08:32.812Z,9.40
2023-04-02T04:12:36.937Z,9.40
2023-04-02T04:16:24.945Z,9.40
2023-04-02T04:20:08.815Z,9.40
2023-04-02T04:23:51.466Z,9.40
2023-04-02T04:27:56.633Z,9.40
2023-04-02T04:31:55.147Z,9.40
2023-04-02T04:35:46.550Z,9.40
2023-04-02T04:39:42.397Z,9.40
2023-04-02T04:43:34.873Z,9.40
2023-04-02T04:47:39.583Z,9.40
2023-04-02T04:51:39.084Z,9.30
2023-04-02T04:55:30.737Z,9.40
2023-04-02T04:59:41.489Z,9.30
2023-04-02T05:03:44.797Z,9.30
2023-04-02T05:07:31.492Z,9.30
2023-04-02T05:11:32.242Z,9.30
2023-04-02T05:15:40.142Z,9.30
2023-04-02T05:19:39.843Z,9.20
2023-04-02T05:23:44.304Z,9.20
2023-04-02T05:27:39.517Z,9.20
2023-04-02T05:31:40.397Z,9.10
2023-04-02T05:35:28.596Z,9.10
2023-04-02T05:39:11.285Z,9.20
2023-04-02T05:42:53.251Z,9.10
2023-04-02T05:46:47.505Z,9.10
2023-04-02T05:50:37.166Z,9.10
2023-04-02T05:54:28.021Z,9.10
2023-04-02T05:58:38.454Z,9.10
2023-04-02T06:02:31.017Z,9.10
2023-04-02T06:06:28.531Z,9.10
2023-04-02T06:10:11.787Z,9.10
2023-04-02T06:13:53.627Z,9.10
2023-04-02T06:17:47.960Z,9.10
2023-04-02T06:21:29.691Z,9.10
2023-04-02T06:25:27.111Z,9.20
2023-04-02T06:29:40.805Z,9.20
2023-04-02T06:33:22.541Z,9.10
2023-04-02T06:37:19.842Z,9.20
2023-04-02T06:41:08.327Z,9.20
2023-04-02T06:44:50.840Z,9.10
2023-04-02T06:48:35.903Z,9.10
2023-04-02T06:52:29.224Z,9.10
2023-04-02T06:56:34.435Z,9.20
2023-04-02T07:00:27.026Z,9.20
2023-04-02T07:04:09.924Z,9.30
2023-04-02T07:07:51.882Z,9.20
2023-04-02T07:11:33.943Z,9.20
2023-04-02T07:15:19.829Z,9.20
2023-04-02T07:19:04.103Z,9.30
2023-04-02T07:22:46.312Z,9.30
2023-04-02T07:26:28.194Z,9.30
2023-04-02T07:30:10.404Z,9.30
2023-04-02T07:33:53.762Z,9.40
2023-04-02T07:37:36.030Z,9.40
2023-04-02T07:41:19.563Z,9.50
2023-04-02T07:45:02.097Z,9.60
2023-04-02T07:48:45.908Z,9.60
2023-04-02T07:52:27.660Z,9.70
2023-04-02T07:56:14.943Z,9.70
2023-04-02T07:59:57.094Z,9.80
2023-04-02T08:03:38.870Z,9.80
2023-04-02T08:07:20.691Z,9.80
2023-04-02T08:11:02.427Z,9.90
2023-04-02T08:14:44.345Z,9.90
2023-04-02T08:18:27.003Z,9.90
2023-04-02T08:22:08.727Z,9.90
2023-04-02T08:25:51.545Z,9.90
2023-04-02T08:29:33.380Z,9.80
2023-04-02T08:33:16.635Z,9.80
2023-04-02T08:36:59.010Z,9.80
2023-04-02T08:40:43.976Z,9.70
2023-04-02T08:45:23.562Z,9.70
2023-04-02T08:49:22.952Z,9.70
2023-04-02T08:53:20.832Z,9.80
2023-04-02T08:57:27.205Z,9.80
2023-04-02T09:02:00.053Z,10.00
2023-04-02T09:05:44.062Z,10.10
2023-04-02T09:09:26.703Z,10.10
2023-04-02T09:13:19.947Z,10.00
2023-04-02T09:17:08.900Z,10.00
2023-04-02T09:20:50.744Z,10.00
2023-04-02T09:24:33.510Z,10.00
2023-04-02T09:28:16.136Z,10.20
2023-04-02T09:32:02.708Z,10.30
2023-04-02T09:35:50.510Z,10.30
2023-04-02T09:39:32.267Z,10.40
2023-04-02T09:43:17.673Z,10.40
2023-04-02T09:47:05.278Z,10.40
2023-04-02T09:50:47.022Z,10.40
2023-04-02T09:54:29.190Z,10.50
2023-04-02T09:58:11.396Z,10.70
2023-04-02T10:01:56.569Z,10.80
2023-04-02T10:05:41.033Z,10.90
2023-04-02T10:09:32.413Z,11.30
2023-04-02T10:13:31.923Z,11.40
2023-04-02T10:17:40.608Z,11.40
2023-04-02T10:21:28.310Z,11.40
2023-04-02T10:25:17.884Z,11.30
2023-04-02T10:29:34.193Z,11.10
2023-04-02T10:33:30.310Z,11.00
2023-04-02T10:37:42.749Z,11.00
2023-04-02T10:41:46.740Z,11.00
2023-04-02T10:45:34.350Z,11.10
2023-04-02T10:49:39.245Z,11.10
2023-04-02T10:53:31.455Z,11.20
2023-04-02T10:57:22.087Z,11.30
2023-04-02T11:01:16.926Z,11.30
2023-04-02T11:05:07.034Z,11.30
2023-04-02T11:08:52.062Z,11.30
2023-04-02T11:12:52.755Z,11.40
2023-04-02T11:16:37.001Z,11.50
2023-04-02T11:20:43.919Z,11.60
2023-04-02T11:24:34.437Z,11.50
2023-04-02T11:28:31.350Z,11.50
2023-04-02T11:32:22.181Z,11.60
2023-04-02T11:36:04.054Z,11.80
2023-04-02T11:39:53.350Z,11.90
2023-04-02T11:43:35.783Z,12.00
2023-04-02T11:47:25.450Z,12.00
2023-04-02T11:51:36.185Z,12.20
2023-04-02T11:55:24.756Z,12.40
2023-04-02T11:59:23.008Z,12.70
2023-04-02T12:03:42.524Z,12.90
2023-04-02T12:07:55.956Z,13.00
2023-04-02T12:11:40.078Z,13.00
2023-04-02T12:15:41.279Z,13.10
2023-04-02T12:19:24.501Z,13.10
2023-04-02T12:23:06.861Z,13.10
2023-04-02T12:26:48.729Z,12.90
2023-04-02T12:30:30.531Z,12.90
2023-04-02T12:34:16.910Z,12.90
2023-04-02T12:37:58.816Z,13.00
2023-04-02T12:41:40.835Z,13.10
2023-04-02T12:45:29.864Z,13.10
2023-04-02T12:49:41.258Z,13.00
2023-04-02T12:53:45.325Z,12.90
2023-04-02T12:57:30.249Z,12.80
2023-04-02T13:01:24.563Z,12.90
2023-04-02T13:05:06.702Z,12.90
2023-04-02T13:08:48.753Z,12.90
2023-04-02T13:12:41.064Z,12.90
2023-04-02T13:16:34.892Z,12.80
2023-04-02T13:20:36.137Z,12.70
2023-04-02T13:24:23.175Z,12.70
2023-04-02T13:28:04.918Z,12.70
2023-04-02T13:31:46.692Z,12.60
2023-04-02T13:35:28.466Z,12.70
2023-04-02T13:39:10.355Z,12.80
2023-04-02T13:42:52.087Z,13.10
2023-04-02T13:46:35.832Z,13.40
2023-04-02T13:50:20.423Z,13.40
2023-04-02T13:54:02.415Z,13.30
2023-04-02T13:57:44.252Z,13.30
2023-04-02T14:01:27.074Z,13.20
2023-04-02T14:05:25.657Z,13.10
2023-04-02T14:09:24.865Z,12.90
2023-04-02T14:13:36.010Z,12.70
2023-04-02T14:17:52.792Z,12.60
2023-04-02T14:22:04.459Z,12.50
2023-04-02T14:25:55.344Z,12.30
2023-04-02T14:30:07.759Z,12.20
2023-04-02T14:33:55.782Z,12.10
2023-04-02T14:38:01.464Z,12.20
2023-04-02T14:42:13.835Z,12.20
2023-04-02T14:46:01.845Z,12.30
2023-04-02T14:49:44.088Z,12.30
2023-04-02T14:53:33.933Z,12.40
2023-04-02T14:57:33.306Z,12.60
2023-04-02T15:01:25.463Z,13.60
2023-04-02T15:05:18.610Z,14.80
2023-04-02T15:09:30.078Z,15.80
2023-04-02T15:13:19.970Z,16.80
2023-04-02T15:17:01.779Z,17.30
2023-04-02T15:20:52.312Z,18.00
2023-04-02T15:24:43.381Z,18.10
2023-04-02T15:28:43.667Z,18.00
2023-04-02T15:32:35.025Z,18.20
2023-04-02T15:36:36.865Z,18.70
2023-04-02T15:40:47.367Z,19.30
2023-04-02T15:44:29.597Z,19.90
2023-04-02T15:48:40.806Z,20.20
2023-04-02T15:52:58.950Z,20.40
2023-04-02T15:57:07.655Z,19.90
2023-04-02T16:01:10.672Z,20.00
2023-04-02T16:05:41.764Z,20.70
2023-04-02T16:09:30.654Z,20.70
2023-04-02T16:13:26.522Z,20.20
2023-04-02T16:17:35.158Z,20.20
2023-04-02T16:21:27.130Z,20.20
2023-04-02T16:25:22.988Z,20.90
2023-04-02T16:29:22.576Z,20.40
2023-04-02T16:33:10.059Z,20.20
2023-04-02T16:37:09.667Z,19.70
2023-04-02T16:41:08.909Z,19.00
2023-04-02T16:44:56.970Z,19.40
2023-04-02T16:48:52.878Z,19.80
2023-04-02T16:52:37.475Z,20.40
2023-04-02T16:56:53.175Z,21.10
2023-04-02T17:00:56.233Z,21.20
2023-04-02T17:04:52.829Z,21.10
2023-04-02T17:08:54.313Z,20.40
2023-04-02T17:12:47.517Z,19.00
2023-04-02T17:16:42.513Z,17.80
2023-04-02T17:20:26.009Z,17.30
2023-04-02T17:24:17.085Z,17.40
2023-04-02T17:27:58.773Z,17.80
2023-04-02T17:31:42.288Z,18.20
2023-04-02T17:35:49.164Z,18.50
2023-04-02T17:39:44.324Z,18.00
2023-04-02T17:43:51.194Z,17.40
2023-04-02T17:47:57.841Z,16.90
2023-04-02T17:51:51.803Z,16.40
2023-04-02T17:55:34.085Z,15.90
2023-04-02T17:59:47.804Z,15.40
2023-04-02T18:03:47.821Z,15.00
2023-04-02T18:07:51.217Z,14.70
2023-04-02T18:11:44.868Z,14.30
2023-04-02T18:15:35.614Z,14.10
2023-04-02T18:19:26.078Z,13.90
2023-04-02T18:23:39.701Z,13.80
2023-04-02T18:27:42.986Z,13.50
2023-04-02T18:31:46.337Z,13.30
2023-04-02T18:35:32.741Z,13.10
2023-04-02T18:39:38.470Z,13.00
2023-04-02T18:43:35.762Z,12.90
2023-04-02T18:47:38.999Z,12.70
2023-04-02T18:51:23.445Z,12.60
2023-04-02T18:55:13.292Z,12.40
2023-04-02T18:59:19.001Z,12.40
2023-04-02T19:03:12.821Z,12.30
2023-04-02T19:07:05.243Z,12.20
2023-04-02T19:10:52.644Z,12.10
2023-04-02T19:14:34.874Z,12.00
2023-04-02T19:18:22.772Z,12.00
2023-04-02T19:22:18.894Z,11.90
2023-04-02T19:26:05.704Z,11.90
2023-04-02T19:30:06.627Z,11.90
2023-04-02T19:34:01.998Z,11.90
2023-04-02T19:38:01.862Z,11.80
2023-04-02T19:41:53.084Z,11.80
2023-04-02T19:45:43.210Z,11.90
2023-04-02T19:49:28.434Z,11.90
2023-04-02T19:53:10.576Z,11.90
2023-04-02T19:56:52.370Z,11.80
2023-04-02T20:00:34.382Z,11.70
2023-04-02T20:04:16.240Z,11.70
2023-04-02T20:07:58.133Z,11.80
2023-04-02T20:11:39.852Z,11.70
2023-04-02T20:15:21.672Z,11.60
2023-04-02T20:19:03.489Z,11.50
2023-04-02T20:22:45.389Z,11.40
2023-04-02T20:26:27.653Z,11.30
2023-04-02T20:30:09.770Z,11.20
2023-04-02T20:33:58.737Z,11.10
2023-04-02T20:37:41.894Z,11.00
2023-04-02T20:41:23.942Z,10.90
2023-04-02T20:45:07.522Z,10.80
2023-04-02T20:48:49.320Z,10.80
2023-04-02T20:52:32.980Z,10.70
2023-04-02T20:56:16.944Z,10.60
2023-04-02T20:59:59.039Z,10.50
2023-04-02T21:03:41.104Z,10.30
2023-04-02T21:07:22.856Z,10.20
2023-04-02T21:11:05.544Z,10.00
2023-04-02T21:14:48.569Z,9.90
2023-04-02T21:18:30.625Z,9.80
2023-04-02T21:22:12.376Z,9.70
2023-04-02T21:26:06.440Z,9.60
2023-04-02T21:29:48.167Z,9.60
2023-04-02T21:33:31.229Z,9.50
2023-04-02T21:37:13.498Z,9.40
2023-04-02T21:40:55.360Z,9.30
2023-04-02T21:44:37.116Z,9.30
2023-04-02T21:48:19.215Z,9.30
2023-04-02T21:52:01.016Z,9.30
2023-04-02T21:55:42.715Z,9.30
2023-04-02T21:59:24.646Z,9.30
2023-04-02T22:03:06.427Z,9.20
2023-04-02T22:06:48.318Z,9.20
2023-04-02T22:10:30.219Z,9.20
2023-04-02T22:14:12.493Z,9.30
2023-04-02T22:17:54.214Z,9.20
2023-04-02T22:21:37.108Z,9.20
2023-04-02T22:25:18.848Z,9.10
2023-04-02T22:29:01.478Z,9.00
2023-04-02T22:32:44.083Z,8.90
2023-04-02T22:36:28.172Z,8.90
2023-04-02T22:40:10.336Z,8.70
2023-04-02T22:43:52.392Z,8.60
2023-04-02T22:47:34.153Z,8.50
2023-04-02T22:51:18.127Z,8.40
2023-04-02T22:54:59.954Z,8.40
2023-04-02T22:58:42.161Z,8.30
2023-04-02T23:02:23.902Z,8.30
2023-04-02T23:06:08.840Z,8.30
2023-04-02T23:09:50.870Z,8.30
2023-04-02T23:13:33.660Z,8.10
2023-04-02T23:17:15.551Z,8.00
2023-04-02T23:20:57.501Z,8.00
2023-04-02T23:24:39.258Z,7.90
2023-04-02T23:28:21.100Z,7.80
2023-04-02T23:32:02.868Z,7.80
2023-04-02T23:35:44.593Z,7.70
2023-04-02T23:39:26.332Z,7.60
2023-04-02T23:43:08.079Z,7.60
2023-04-02T23:46:49.805Z,7.50
2023-04-02T23:50:31.565Z,7.50
2023-04-02T23:54:14.453Z,7.50
2023-04-02T23:57:56.226Z,7.50
